createdAt,value
2023-01-21T05:13:49.847Z,11.77
2023-01-21T05:28:54.305Z,9.30
2023-01-21T05:43:58.822Z,10.00
2023-01-21T05:59:03.323Z,11.13
2023-01-21T06:14:07.823Z,11.93
2023-01-21T06:29:12.418Z,10.97
2023-01-21T06:44:16.823Z,13.07
2023-01-21T06:59:21.291Z,14.67
2023-01-21T07:14:25.877Z,15.83
2023-01-21T07:29:30.339Z,18.20
2023-01-21T07:44:35.011Z,21.53
2023-01-21T07:59:39.473Z,21.50
2023-01-21T08:14:43.909Z,21.27
2023-01-21T08:29:48.570Z,23.10
2023-01-21T08:44:54.097Z,21.73
2023-01-21T08:59:58.573Z,23.97
2023-01-21T09:15:03.156Z,25.80
2023-01-21T09:30:08.943Z,23.70
2023-01-21T09:45:16.903Z,26.20
2023-01-21T10:00:35.303Z,25.53
2023-01-21T10:15:50.742Z,26.20
2023-01-21T10:30:57.446Z,26.23
2023-01-21T10:46:08.923Z,26.73
2023-01-21T11:01:19.749Z,26.00
2023-01-21T11:16:35.865Z,24.53
2023-01-21T11:31:41.716Z,22.57
2023-01-21T11:46:46.657Z,23.50
2023-01-21T12:01:56.697Z,20.87
2023-01-21T12:17:06.259Z,20.47
2023-01-21T12:32:15.211Z,22.03
2023-01-21T12:47:32.045Z,23.17
2023-01-21T13:02:48.483Z,26.23
2023-01-21T13:17:56.846Z,25.00
2023-01-21T13:33:23.564Z,23.77
2023-01-21T13:48:53.305Z,24.33
2023-01-21T14:04:04.215Z,24.93
2023-01-21T14:19:22.571Z,23.70
2023-01-21T14:34:30.931Z,22.20
2023-01-21T14:49:45.689Z,19.10
2023-01-21T15:04:56.815Z,21.50
2023-01-21T15:20:39.891Z,20.30
2023-01-21T15:35:45.318Z,19.87
2023-01-21T15:50:55.095Z,19.70
2023-01-21T16:06:05.339Z,20.43
2023-01-21T16:21:11.124Z,22.10
2023-01-21T16:36:16.275Z,20.07
2023-01-21T16:51:23.629Z,20.40
2023-01-21T17:06:31.648Z,19.43
2023-01-21T17:21:39.522Z,22.07
2023-01-21T17:36:45.601Z,23.80
2023-01-21T17:51:50.837Z,26.17
2023-01-21T18:06:56.553Z,27.50
2023-01-21T18:22:01.980Z,29.23
2023-01-21T18:37:13.896Z,32.60
2023-01-21T18:52:19.718Z,34.87
2023-01-21T19:07:25.421Z,36.30
2023-01-21T19:22:30.000Z,35.73
2023-01-21T19:37:34.490Z,38.80
2023-01-21T19:52:39.103Z,37.90
2023-01-21T20:07:44.266Z,39.70
2023-01-21T20:22:48.969Z,41.77
2023-01-21T20:37:54.880Z,42.97
2023-01-21T20:52:59.654Z,41.13
2023-01-21T21:08:04.479Z,39.93
2023-01-21T21:23:10.799Z,37.97
2023-01-21T21:38:18.301Z,38.53
2023-01-21T21:53:22.958Z,39.17
2023-01-21T22:08:29.433Z,38.57
2023-01-21T22:23:36.343Z,33.73
2023-01-21T22:38:41.339Z,30.70
2023-01-21T22:53:45.936Z,26.57
2023-01-21T23:08:50.926Z,27.97
2023-01-21T23:23:55.365Z,27.20
2023-01-21T23:38:59.866Z,27.73
2023-01-21T23:54:04.461Z,27.47
